Time;durP1;ratioP1;P1;durP2;ratioP2;P2;SDS_P1;SDS_P2;PMS_P1;PMS_P2;Temp;Humidity;BMP_temperature;BMP_pressure;BME280_temperature;BME280_humidity;BME280_pressure;Samples;Min_cycle;Max_cycle;Signal;HPM_P1;HPM_P2
2021/08/20 00:01:02;;;;;;;12.35;7.47;;;16.90;90.60;;;;;;5055354;28;20031;-83
2021/08/20 00:03:27;;;;;;;10.32;6.70;;;16.90;90.70;;;;;;5038697;28;20059;-83
2021/08/20 00:05:53;;;;;;;10.05;7.00;;;16.90;90.80;;;;;;5073572;28;20035;-84
2021/08/20 00:08:19;;;;;;;10.50;6.63;;;16.90;90.80;;;;;;5038735;28;20029;-83
2021/08/20 00:10:44;;;;;;;13.30;8.27;;;16.90;90.80;;;;;;5055217;28;20060;-83
2021/08/20 00:13:10;;;;;;;9.27;6.97;;;16.90;90.80;;;;;;5072989;28;20504;-83
2021/08/20 00:15:36;;;;;;;8.77;6.97;;;16.90;90.80;;;;;;5054989;28;20392;-83
2021/08/20 00:18:01;;;;;;;11.70;7.68;;;16.90;90.80;;;;;;5055190;28;20028;-83
2021/08/20 00:20:27;;;;;;;12.55;8.18;;;16.90;90.80;;;;;;5073253;28;20036;-83
2021/08/20 00:22:53;;;;;;;10.30;7.50;;;16.90;90.70;;;;;;5073165;28;20036;-83
2021/08/20 00:25:18;;;;;;;10.35;7.72;;;16.90;90.70;;;;;;5038465;28;20496;-84
2021/08/20 00:27:44;;;;;;;11.68;7.65;;;16.90;90.80;;;;;;5038725;28;20499;-83
2021/08/20 00:30:11;;;;;;;11.38;8.65;;;16.90;90.80;;;;;;5055007;28;20029;-83
2021/08/20 00:32:37;;;;;;;13.55;7.07;;;16.90;90.70;;;;;;5072593;28;20123;-83
2021/08/20 00:35:04;;;;;;;11.52;8.00;;;16.90;91.00;;;;;;5073173;28;20024;-83
2021/08/20 00:37:30;;;;;;;11.27;7.75;;;16.90;90.70;;;;;;5055015;28;20021;-83
2021/08/20 00:40:00;;;;;;;11.45;9.05;;;16.90;90.70;;;;;;5055225;28;20040;-84
2021/08/20 00:42:25;;;;;;;12.15;9.45;;;16.80;90.60;;;;;;5072994;28;20536;-83
2021/08/20 00:44:52;;;;;;;11.80;8.90;;;16.80;90.60;;;;;;5073158;28;20090;-83
2021/08/20 00:47:18;;;;;;;14.23;9.90;;;16.80;90.60;;;;;;5072705;28;20035;-84
2021/08/20 00:49:46;;;;;;;13.63;9.65;;;16.70;90.60;;;;;;5072523;28;20036;-83
2021/08/20 00:52:11;;;;;;;12.43;10.17;;;16.70;90.60;;;;;;5072697;28;20527;-83
2021/08/20 00:54:38;;;;;;;11.80;10.13;;;16.60;90.50;;;;;;5054907;28;20021;-84
2021/08/20 00:57:04;;;;;;;14.23;10.20;;;16.60;90.50;;;;;;5055038;28;20097;-84
2021/08/20 00:59:30;;;;;;;13.05;9.30;;;16.50;90.50;;;;;;5072931;28;20073;-84
2021/08/20 01:01:56;;;;;;;16.17;10.77;;;16.50;90.50;;;;;;5054328;28;20127;-83
2021/08/20 01:04:21;;;;;;;14.20;9.88;;;16.50;90.50;;;;;;5072993;28;20041;-83
2021/08/20 01:06:47;;;;;;;15.88;10.82;;;16.40;90.50;;;;;;5054838;28;20036;-84
2021/08/20 01:09:13;;;;;;;15.25;9.93;;;16.40;90.50;;;;;;5054819;28;20048;-83
2021/08/20 01:11:39;;;;;;;13.35;9.98;;;16.40;90.60;;;;;;5072363;28;20086;-83
2021/08/20 01:14:06;;;;;;;13.98;10.38;;;16.30;90.50;;;;;;5072685;28;20025;-84
2021/08/20 01:16:36;;;;;;;14.98;9.07;;;16.30;90.60;;;;;;5072480;28;20031;-83
2021/08/20 01:19:02;;;;;;;14.38;11.43;;;16.30;90.60;;;;;;5038221;28;20029;-83
2021/08/20 01:21:28;;;;;;;12.73;9.05;;;16.30;90.60;;;;;;5071566;28;20036;-84
2021/08/20 01:23:56;;;;;;;11.05;9.10;;;16.30;90.70;;;;;;5053274;28;20102;-83
2021/08/20 01:26:23;;;;;;;16.60;11.05;;;16.30;90.70;;;;;;5070816;28;20032;-83
2021/08/20 01:28:49;;;;;;;14.77;10.85;;;16.20;90.70;;;;;;5073617;28;20039;-83
2021/08/20 01:31:16;;;;;;;14.60;9.60;;;16.20;90.70;;;;;;5074846;28;20029;-83
2021/08/20 01:33:42;;;;;;;14.52;10.27;;;16.20;90.70;;;;;;5075514;28;20396;-82
2021/08/20 01:36:09;;;;;;;13.65;10.65;;;16.20;90.70;;;;;;5057782;28;20024;-83
2021/08/20 01:38:44;;;;;;;13.25;9.90;;;16.10;90.60;;;;;;5076154;28;20021;-84
2021/08/20 01:41:10;;;;;;;11.18;8.68;;;16.20;90.70;;;;;;5057992;28;20481;-84
2021/08/20 01:43:36;;;;;;;14.57;10.00;;;16.10;90.70;;;;;;5075832;28;20033;-83
2021/08/20 01:46:01;;;;;;;14.27;9.82;;;16.10;90.70;;;;;;5057626;28;20028;-83
2021/08/20 01:48:27;;;;;;;14.90;10.00;;;16.10;90.70;;;;;;5075617;28;20032;-83
2021/08/20 01:50:52;;;;;;;15.00;10.30;;;16.00;90.80;;;;;;5057676;28;20056;-83
2021/08/20 01:53:18;;;;;;;16.13;11.38;;;16.00;90.80;;;;;;5041154;28;20429;-83
2021/08/20 01:55:44;;;;;;;16.35;10.27;;;16.00;90.80;;;;;;5041083;28;20029;-83
2021/08/20 01:58:10;;;;;;;11.50;8.90;;;16.00;90.90;;;;;;5075670;28;20377;-83
2021/08/20 02:00:37;;;;;;;11.80;9.18;;;16.10;91.00;;;;;;5057478;28;20028;-83
2021/08/20 02:03:03;;;;;;;17.15;10.13;;;16.10;91.00;;;;;;5075014;28;20078;-83
2021/08/20 02:05:28;;;;;;;18.45;10.90;;;16.10;91.00;;;;;;5040855;28;20393;-84
2021/08/20 02:07:54;;;;;;;12.70;9.23;;;16.00;91.00;;;;;;5040648;28;20374;-83
2021/08/20 02:10:20;;;;;;;16.00;10.30;;;16.10;91.00;;;;;;5057307;28;20060;-83
2021/08/20 02:12:46;;;;;;;17.17;11.65;;;16.10;91.00;;;;;;5074868;28;20028;-83
2021/08/20 02:15:12;;;;;;;10.77;9.13;;;16.00;91.00;;;;;;5038908;28;20628;-84
2021/08/20 02:17:38;;;;;;;11.98;9.25;;;16.00;91.00;;;;;;5074016;28;20044;-83
2021/08/20 02:20:05;;;;;;;13.85;10.43;;;16.00;91.00;;;;;;5053036;28;20382;-83
2021/08/20 02:22:30;;;;;;;12.35;9.50;;;16.00;91.10;;;;;;5075037;28;20417;-84
2021/08/20 02:24:56;;;;;;;13.57;9.82;;;16.10;91.10;;;;;;5057234;28;20029;-83
2021/08/20 02:27:22;;;;;;;12.93;9.88;;;16.00;91.10;;;;;;5057388;28;20036;-83
2021/08/20 02:29:48;;;;;;;12.77;9.77;;;16.00;91.10;;;;;;5074912;28;20031;-83
2021/08/20 02:32:13;;;;;;;11.00;9.35;;;16.00;91.00;;;;;;5074217;28;20044;-83
2021/08/20 02:34:39;;;;;;;13.43;9.88;;;16.00;91.10;;;;;;5074619;28;20031;-83
2021/08/20 02:37:05;;;;;;;10.63;8.65;;;16.00;91.10;;;;;;5074522;28;20017;-83
2021/08/20 02:39:32;;;;;;;14.30;9.80;;;16.00;91.10;;;;;;5073364;28;20103;-84
2021/08/20 02:41:58;;;;;;;13.95;10.48;;;16.00;91.10;;;;;;5056259;28;20036;-84
2021/08/20 02:44:23;;;;;;;12.05;8.23;;;16.00;91.10;;;;;;5056381;28;20090;-84
2021/08/20 02:46:49;;;;;;;12.70;8.68;;;16.00;91.10;;;;;;5056293;28;20106;-83
2021/08/20 02:49:15;;;;;;;10.77;8.00;;;16.10;91.20;;;;;;5074243;28;20547;-83
2021/08/20 02:51:40;;;;;;;13.27;8.40;;;16.10;91.20;;;;;;5056130;28;20047;-84
2021/08/20 02:54:06;;;;;;;11.05;7.88;;;16.10;91.20;;;;;;5039689;28;20504;-84
2021/08/20 02:56:32;;;;;;;15.18;9.05;;;16.10;91.20;;;;;;5072528;28;20025;-84
2021/08/20 02:58:57;;;;;;;10.38;7.93;;;16.10;91.20;;;;;;5055174;28;20477;-84
2021/08/20 03:01:23;;;;;;;10.90;7.47;;;16.10;91.10;;;;;;5055154;28;20036;-83
2021/08/20 03:03:49;;;;;;;9.02;7.82;;;16.10;91.10;;;;;;5054726;28;20036;-83
2021/08/20 03:06:15;;;;;;;11.00;7.43;;;16.20;91.20;;;;;;5055638;28;20166;-84
2021/08/20 03:08:41;;;;;;;12.07;8.13;;;16.20;91.20;;;;;;5074050;28;20039;-83
2021/08/20 03:11:06;;;;;;;10.93;7.85;;;16.20;91.20;;;;;;5039456;28;20115;-84
2021/08/20 03:13:32;;;;;;;10.40;7.85;;;16.20;91.20;;;;;;5074190;28;20545;-83
2021/08/20 03:15:58;;;;;;;12.13;7.88;;;16.20;91.20;;;;;;5039546;28;20029;-83
2021/08/20 03:18:23;;;;;;;11.40;7.22;;;16.20;91.20;;;;;;5073887;28;20017;-83
2021/08/20 03:20:49;;;;;;;12.00;8.73;;;16.20;91.20;;;;;;5056179;28;20094;-83
2021/08/20 03:23:15;;;;;;;10.27;8.40;;;16.20;91.20;;;;;;5073884;28;20028;-83
2021/08/20 03:25:40;;;;;;;12.18;7.82;;;16.30;91.30;;;;;;5073952;28;20024;-83
2021/08/20 03:28:07;;;;;;;12.48;7.60;;;16.30;91.30;;;;;;5073961;28;20035;-83
2021/08/20 03:30:34;;;;;;;9.20;7.43;;;16.30;91.30;;;;;;5073699;28;20029;-83
2021/08/20 03:33:00;;;;;;;13.23;8.23;;;16.30;91.30;;;;;;5056045;28;20067;-83
2021/08/20 03:35:25;;;;;;;12.68;8.30;;;16.30;91.30;;;;;;5073600;28;20052;-83
2021/08/20 03:37:51;;;;;;;11.23;7.40;;;16.30;91.30;;;;;;5055963;28;20032;-83
2021/08/20 03:40:17;;;;;;;10.38;6.85;;;16.30;91.30;;;;;;5055826;28;20025;-83
2021/08/20 03:42:42;;;;;;;10.30;7.03;;;16.30;91.30;;;;;;5073649;28;20036;-83
2021/08/20 03:45:08;;;;;;;10.15;7.15;;;16.40;91.30;;;;;;5056017;28;20107;-83
2021/08/20 03:47:35;;;;;;;10.45;7.07;;;16.40;91.30;;;;;;5073381;28;20025;-83
2021/08/20 03:50:02;;;;;;;11.95;8.05;;;16.40;91.30;;;;;;5073205;28;20032;-83
2021/08/20 03:52:27;;;;;;;10.15;7.60;;;16.40;91.30;;;;;;5072953;28;20032;-83
2021/08/20 03:54:53;;;;;;;10.45;7.20;;;16.30;91.30;;;;;;5073504;28;20033;-83
2021/08/20 03:57:19;;;;;;;11.52;7.53;;;16.40;91.30;;;;;;5055675;28;20032;-83
2021/08/20 03:59:44;;;;;;;10.73;7.13;;;16.40;91.30;;;;;;5073554;28;20025;-83
2021/08/20 04:02:10;;;;;;;10.93;7.60;;;16.40;91.40;;;;;;5055657;28;20025;-83
2021/08/20 04:04:35;;;;;;;10.18;7.50;;;16.40;91.40;;;;;;5055439;28;20029;-83
2021/08/20 04:07:03;;;;;;;9.15;7.25;;;16.40;91.40;;;;;;5055455;28;20028;-83
2021/08/20 04:09:28;;;;;;;12.15;8.00;;;16.40;91.40;;;;;;5055197;28;20050;-83
2021/08/20 04:11:55;;;;;;;9.45;7.68;;;16.40;91.40;;;;;;5072813;28;20668;-83
2021/08/20 04:14:20;;;;;;;11.13;7.18;;;16.40;91.40;;;;;;5073275;28;20028;-83
2021/08/20 04:16:46;;;;;;;7.32;6.20;;;16.40;91.40;;;;;;5073109;28;20025;-83
2021/08/20 04:19:11;;;;;;;9.95;6.88;;;16.40;91.40;;;;;;5055482;28;20108;-83
2021/08/20 04:21:38;;;;;;;12.27;6.75;;;16.40;91.40;;;;;;5055104;28;20029;-83
2021/08/20 04:24:04;;;;;;;8.50;6.43;;;16.40;91.40;;;;;;5073177;28;20407;-83
2021/08/20 04:26:30;;;;;;;9.82;6.75;;;16.40;91.40;;;;;;5038090;28;20085;-83
2021/08/20 04:28:56;;;;;;;11.95;6.85;;;16.40;91.40;;;;;;5054978;28;20525;-82
2021/08/20 04:31:21;;;;;;;9.82;6.72;;;16.40;91.40;;;;;;5054754;28;20045;-83
2021/08/20 04:33:47;;;;;;;15.23;6.80;;;16.40;91.40;;;;;;5072931;28;20048;-83
2021/08/20 04:36:12;;;;;;;10.57;7.65;;;16.40;91.50;;;;;;5072557;28;20432;-83
2021/08/20 04:38:40;;;;;;;9.30;6.93;;;16.40;91.50;;;;;;5053894;28;20370;-83
2021/08/20 04:41:07;;;;;;;8.90;7.20;;;16.40;91.50;;;;;;5052728;28;20043;-83
2021/08/20 04:43:34;;;;;;;9.77;6.10;;;16.40;91.60;;;;;;5053553;28;20456;-83
2021/08/20 04:46:00;;;;;;;8.65;6.70;;;16.40;91.60;;;;;;5071914;28;20180;-84
2021/08/20 04:48:26;;;;;;;12.57;7.65;;;16.40;91.60;;;;;;5054485;28;20129;-83
2021/08/20 04:50:52;;;;;;;9.23;7.30;;;16.40;91.60;;;;;;5054531;28;20040;-83
2021/08/20 04:53:19;;;;;;;10.85;7.25;;;16.40;91.60;;;;;;5038357;28;20496;-83
2021/08/20 04:55:45;;;;;;;10.40;6.90;;;16.40;91.60;;;;;;5037571;28;20032;-83
2021/08/20 04:58:10;;;;;;;9.52;6.80;;;16.40;91.60;;;;;;5054679;28;20032;-83
2021/08/20 05:00:36;;;;;;;10.43;7.45;;;16.40;91.60;;;;;;5054633;28;20021;-83
2021/08/20 05:03:01;;;;;;;10.80;6.72;;;16.50;91.70;;;;;;5073850;28;20039;-83
2021/08/20 05:05:29;;;;;;;11.30;7.55;;;16.50;91.70;;;;;;5058636;28;20037;-83
2021/08/20 05:07:54;;;;;;;9.00;6.35;;;16.50;91.70;;;;;;5076311;28;20029;-83
2021/08/20 05:10:20;;;;;;;10.73;7.55;;;16.50;91.70;;;;;;5076137;28;20108;-83
2021/08/20 05:12:46;;;;;;;11.02;7.57;;;16.50;91.70;;;;;;5041209;28;20488;-83
2021/08/20 05:15:11;;;;;;;9.35;7.05;;;16.50;91.70;;;;;;5075213;28;20032;-83
2021/08/20 05:17:37;;;;;;;11.85;8.15;;;16.50;91.70;;;;;;5040425;28;20025;-83
2021/08/20 05:20:04;;;;;;;10.93;7.72;;;16.60;91.70;;;;;;5075979;28;20121;-83
2021/08/20 05:22:44;;;;;;;10.68;7.10;;;16.60;91.80;;;;;;5057634;28;20020;-83
2021/08/20 05:25:10;;;;;;;10.43;7.18;;;16.60;91.80;;;;;;5057792;28;20138;-83
2021/08/20 05:27:35;;;;;;;9.77;6.95;;;16.60;91.80;;;;;;5057218;28;20028;-83
2021/08/20 05:30:01;;;;;;;11.02;7.57;;;16.60;91.80;;;;;;5075436;28;20040;-83
2021/08/20 05:32:27;;;;;;;13.10;8.23;;;16.60;91.80;;;;;;5017993;28;20058;-83
2021/08/20 05:34:52;;;;;;;14.73;8.23;;;16.60;91.90;;;;;;5044284;28;20021;-83
2021/08/20 05:37:18;;;;;;;14.30;8.55;;;16.70;91.90;;;;;;5053693;28;20093;-83
2021/08/20 05:39:43;;;;;;;12.70;8.38;;;16.70;91.90;;;;;;5053578;28;20482;-83
2021/08/20 05:42:09;;;;;;;13.48;7.90;;;16.70;91.90;;;;;;5053705;28;20041;-83
2021/08/20 05:44:34;;;;;;;9.75;6.97;;;16.80;91.80;;;;;;5036638;28;20028;-83
2021/08/20 05:47:00;;;;;;;14.48;8.60;;;16.80;91.80;;;;;;5053433;28;20029;-83
2021/08/20 05:49:26;;;;;;;14.45;7.97;;;16.80;91.80;;;;;;5052859;28;20029;-83
2021/08/20 05:51:52;;;;;;;10.77;7.10;;;16.80;91.80;;;;;;5053491;28;20116;-83
2021/08/20 05:54:20;;;;;;;14.68;9.02;;;16.80;91.80;;;;;;5037430;28;20557;-83
2021/08/20 05:56:45;;;;;;;12.57;9.30;;;16.80;91.80;;;;;;5054502;28;20053;-83
2021/08/20 05:59:11;;;;;;;13.73;8.93;;;16.80;91.80;;;;;;5053904;28;20075;-83
2021/08/20 06:01:37;;;;;;;14.25;9.70;;;16.80;91.80;;;;;;5044375;28;20112;-83
2021/08/20 06:04:02;;;;;;;17.60;9.50;;;16.90;91.80;;;;;;5051084;28;20083;-82
2021/08/20 06:06:28;;;;;;;13.65;9.68;;;16.90;91.80;;;;;;5040424;28;20376;-84
2021/08/20 06:08:53;;;;;;;12.60;7.85;;;16.90;91.80;;;;;;5054303;28;20504;-84
2021/08/20 06:11:19;;;;;;;16.33;9.27;;;17.00;91.80;;;;;;5054055;28;20040;-83
2021/08/20 06:13:49;;;;;;;17.85;9.73;;;17.10;91.80;;;;;;5037236;28;20021;-83
2021/08/20 06:16:15;;;;;;;;;;;17.20;91.70;;;;;;5054649;28;20017;-84
2021/08/20 06:18:40;;;;;;;12.73;7.43;;;17.20;91.60;;;;;;5054310;28;20250;-84
2021/08/20 06:21:06;;;;;;;14.65;10.00;;;17.20;91.60;;;;;;5054002;28;20028;-84
2021/08/20 06:23:32;;;;;;;13.40;9.15;;;17.20;91.60;;;;;;5054116;28;20094;-84
2021/08/20 06:25:57;;;;;;;18.02;9.07;;;17.30;91.70;;;;;;5053865;28;20440;-83
2021/08/20 06:28:23;;;;;;;16.90;9.55;;;17.30;91.60;;;;;;5053803;28;20029;-83
2021/08/20 06:30:49;;;;;;;13.45;9.52;;;17.40;91.60;;;;;;5053697;28;20044;-84
2021/08/20 06:33:15;;;;;;;15.35;8.48;;;17.50;91.50;;;;;;5069146;28;20037;-84
2021/08/20 06:35:41;;;;;;;13.30;8.95;;;17.60;91.50;;;;;;5074833;28;20129;-84
2021/08/20 06:38:07;;;;;;;14.20;8.65;;;17.80;91.30;;;;;;5056667;28;20111;-83
2021/08/20 06:40:33;;;;;;;14.55;9.20;;;17.90;91.30;;;;;;5056851;28;20211;-84
2021/08/20 06:42:58;;;;;;;12.43;9.05;;;18.00;91.00;;;;;;5077894;28;20517;-84
2021/08/20 06:45:24;;;;;;;14.10;8.68;;;18.10;90.90;;;;;;5057063;28;20428;-84
2021/08/20 06:47:50;;;;;;;13.85;8.45;;;18.20;90.80;;;;;;5074684;28;20372;-83
2021/08/20 06:50:15;;;;;;;13.57;9.10;;;18.20;90.80;;;;;;5074417;28;20105;-83
2021/08/20 06:52:41;;;;;;;13.60;8.95;;;18.20;91.00;;;;;;5074746;28;20498;-83
2021/08/20 06:55:07;;;;;;;13.65;7.82;;;18.20;91.10;;;;;;5056692;28;20032;-83
2021/08/20 06:57:32;;;;;;;16.98;9.02;;;18.20;91.10;;;;;;5056422;28;20031;-84
2021/08/20 06:59:58;;;;;;;11.18;8.00;;;18.20;91.20;;;;;;5039492;28;20016;-84
2021/08/20 07:02:23;;;;;;;12.75;8.48;;;18.10;91.20;;;;;;5073728;28;20092;-84
2021/08/20 07:04:50;;;;;;;14.77;9.10;;;18.20;91.20;;;;;;5056067;28;20028;-83
2021/08/20 07:07:16;;;;;;;15.40;8.50;;;18.20;91.20;;;;;;5074112;28;20020;-84
2021/08/20 07:09:41;;;;;;;12.13;7.93;;;18.30;91.20;;;;;;5056032;28;20523;-85
2021/08/20 07:12:07;;;;;;;12.00;8.50;;;18.30;91.10;;;;;;5056364;28;20029;-83
2021/08/20 07:14:33;;;;;;;10.55;8.00;;;18.30;91.10;;;;;;5074109;28;20028;-83
2021/08/20 07:16:59;;;;;;;14.63;8.80;;;18.30;91.10;;;;;;5056373;28;20028;-83
2021/08/20 07:19:24;;;;;;;13.25;7.72;;;18.30;91.00;;;;;;5055992;28;20025;-83
2021/08/20 07:21:50;;;;;;;12.48;7.85;;;18.40;91.00;;;;;;5039663;28;20028;-83
2021/08/20 07:24:15;;;;;;;12.35;7.65;;;18.40;91.00;;;;;;5074090;28;20456;-83
2021/08/20 07:26:41;;;;;;;13.40;8.02;;;18.40;91.00;;;;;;5055983;28;20029;-83
2021/08/20 07:29:07;;;;;;;12.85;7.45;;;18.40;91.10;;;;;;5073850;28;20032;-84
2021/08/20 07:31:35;;;;;;;14.93;8.57;;;18.40;91.10;;;;;;5058708;28;20036;-83
2021/08/20 07:34:01;;;;;;;11.68;7.82;;;18.40;91.20;;;;;;5053833;28;20104;-83
2021/08/20 07:36:27;;;;;;;13.10;6.72;;;18.50;91.20;;;;;;5069212;28;20033;-83
2021/08/20 07:38:52;;;;;;;10.88;7.20;;;18.60;91.20;;;;;;5036000;28;20032;-83
2021/08/20 07:41:19;;;;;;;12.80;6.50;;;18.70;91.10;;;;;;5068086;28;20039;-83
2021/08/20 07:43:45;;;;;;;8.73;5.80;;;18.90;90.90;;;;;;5055660;28;20035;-82
2021/08/20 07:46:10;;;;;;;9.02;5.57;;;18.90;90.60;;;;;;5081832;28;20025;-82
2021/08/20 07:48:36;;;;;;;9.13;5.68;;;19.00;90.50;;;;;;5041210;28;20033;-86
2021/08/20 07:51:02;;;;;;;11.35;5.25;;;19.00;90.50;;;;;;5077717;28;20047;-83
2021/08/20 07:53:27;;;;;;;8.60;5.53;;;19.00;90.50;;;;;;5079410;28;20031;-84
2021/08/20 07:55:53;;;;;;;6.60;5.25;;;19.00;90.60;;;;;;5038046;28;20029;-84
2021/08/20 07:58:19;;;;;;;7.47;4.65;;;19.10;90.60;;;;;;5055371;28;20078;-84
2021/08/20 08:00:44;;;;;;;6.13;4.72;;;19.20;90.40;;;;;;5075915;28;20398;-84
2021/08/20 08:03:10;;;;;;;6.53;4.75;;;19.30;90.40;;;;;;5075300;28;20039;-85
2021/08/20 08:05:36;;;;;;;7.15;4.90;;;19.30;90.30;;;;;;5081587;28;20158;-83
2021/08/20 08:08:02;;;;;;;8.55;4.90;;;19.30;90.30;;;;;;5060828;28;20025;-84
2021/08/20 08:10:28;;;;;;;8.38;4.38;;;19.30;90.20;;;;;;5060772;28;20115;-85
2021/08/20 08:12:54;;;;;;;8.38;5.13;;;19.20;90.40;;;;;;5061852;28;20052;-85
2021/08/20 08:15:21;;;;;;;6.72;4.80;;;19.10;90.70;;;;;;5080128;28;20508;-85
2021/08/20 08:17:46;;;;;;;5.97;4.18;;;19.10;91.00;;;;;;5057163;28;20112;-84
2021/08/20 08:20:14;;;;;;;5.18;3.03;;;19.10;91.20;;;;;;5081137;28;20107;-85
2021/08/20 08:22:40;;;;;;;4.38;2.72;;;19.10;91.30;;;;;;5076688;28;20033;-86
2021/08/20 08:25:07;;;;;;;4.63;2.40;;;19.20;91.20;;;;;;5082014;28;20082;-85
2021/08/20 08:27:45;;;;;;;3.47;2.40;;;19.20;91.10;;;;;;5040739;28;20097;-87
2021/08/20 08:30:11;;;;;;;3.55;2.20;;;19.30;91.10;;;;;;5058723;28;20024;-86
2021/08/20 08:32:37;;;;;;;2.30;2.10;;;19.30;91.00;;;;;;5059526;28;20139;-86
2021/08/20 08:35:02;;;;;;;4.18;2.13;;;19.30;91.10;;;;;;5057373;28;20033;-86
2021/08/20 08:37:28;;;;;;;5.03;1.80;;;19.20;91.20;;;;;;5080776;28;20028;-86
2021/08/20 08:39:53;;;;;;;3.03;1.90;;;19.20;91.30;;;;;;5044151;28;20127;-86
2021/08/20 08:42:19;;;;;;;1.95;1.60;;;19.00;91.50;;;;;;5062412;28;20021;-85
2021/08/20 08:44:45;;;;;;;2.00;1.80;;;19.00;91.60;;;;;;5047395;28;20093;-84
2021/08/20 08:47:15;;;;;;;3.20;1.80;;;19.00;91.70;;;;;;5086921;28;20020;-85
2021/08/20 08:49:43;;;;;;;3.13;1.80;;;19.00;91.70;;;;;;5065427;28;20047;-85
2021/08/20 08:52:09;;;;;;;2.40;1.83;;;19.00;91.70;;;;;;5065873;28;20024;-85
2021/08/20 08:54:34;;;;;;;2.50;2.00;;;18.90;91.80;;;;;;5083104;28;20035;-86
2021/08/20 08:57:00;;;;;;;1.85;1.73;;;18.80;91.90;;;;;;5082801;28;20483;-84
2021/08/20 08:59:25;;;;;;;2.20;1.98;;;18.80;92.00;;;;;;5067811;28;20069;-86
2021/08/20 09:01:51;;;;;;;2.60;2.40;;;18.90;92.10;;;;;;5059570;28;20029;-86
2021/08/20 09:04:19;;;;;;;4.32;2.65;;;18.90;92.00;;;;;;5084520;28;20028;-85
2021/08/20 09:06:44;;;;;;;2.85;2.22;;;18.90;92.00;;;;;;5083400;28;20110;-86
2021/08/20 09:09:13;;;;;;;2.35;2.10;;;18.90;92.10;;;;;;5085723;28;20052;-85
2021/08/20 09:11:40;;;;;;;3.03;2.20;;;18.90;92.20;;;;;;5083465;28;20032;-84
2021/08/20 09:14:06;;;;;;;2.17;1.98;;;18.90;92.30;;;;;;5072982;28;20369;-79
2021/08/20 09:16:43;;;;;;;2.30;2.10;;;18.90;92.40;;;;;;5060017;28;20017;-78
2021/08/20 09:19:13;;;;;;;3.08;2.50;;;19.00;92.50;;;;;;5087850;28;20020;-78
2021/08/20 09:21:45;;;;;;;5.22;3.88;;;19.10;92.50;;;;;;5096360;28;20089;-79
2021/08/20 09:24:32;;;;;;;5.30;4.72;;;19.20;92.70;;;;;;5068364;28;20033;-80
2021/08/20 09:27:14;;;;;;;7.75;5.55;;;19.50;92.40;;;;;;5056986;28;20492;-81
2021/08/20 09:29:53;;;;;;;6.22;5.63;;;19.80;92.10;;;;;;5057026;28;20389;-85
2021/08/20 09:32:21;;;;;;;7.00;6.35;;;20.10;91.50;;;;;;5073855;28;20041;-85
2021/08/20 09:34:54;;;;;;;8.02;7.25;;;20.20;90.90;;;;;;5039394;28;20511;-86
2021/08/20 09:37:20;;;;;;;9.15;6.88;;;20.30;90.90;;;;;;5072045;28;20024;-86
2021/08/20 09:39:47;;;;;;;10.35;7.53;;;20.40;90.80;;;;;;5083802;28;20023;-86
2021/08/20 09:42:16;;;;;;;9.27;7.72;;;20.40;90.50;;;;;;5056914;28;20043;-84
2021/08/20 09:44:42;;;;;;;8.45;6.97;;;20.50;90.40;;;;;;5069838;28;20385;-84
2021/08/20 09:47:08;;;;;;;9.68;7.97;;;20.60;90.20;;;;;;5091496;28;20024;-83
2021/08/20 09:49:57;;;;;;;9.77;8.68;;;20.60;89.30;;;;;;5073573;28;20549;-85
2021/08/20 09:52:26;;;;;;;;;;;20.60;89.40;;;;;;5067868;28;20065;-84
2021/08/20 09:54:52;;;;;;;8.25;7.45;;;20.70;89.50;;;;;;5094504;28;19912;-83
2021/08/20 09:57:19;;;;;;;9.43;7.32;;;20.70;88.60;;;;;;5050167;28;20033;-83
2021/08/20 09:59:46;;;;;;;11.95;8.50;;;20.70;88.80;;;;;;5051403;28;20028;-83
2021/08/20 10:02:20;;;;;;;8.77;6.28;;;20.70;89.00;;;;;;5075128;28;20541;-84
2021/08/20 10:04:46;;;;;;;7.20;6.45;;;20.80;89.10;;;;;;5089419;28;20024;-84
2021/08/20 10:07:16;;;;;;;9.00;6.70;;;20.90;88.60;;;;;;5076234;28;20546;-83
2021/08/20 10:09:44;;;;;;;8.02;6.03;;;21.10;87.30;;;;;;5075533;28;20491;-84
2021/08/20 10:12:10;;;;;;;7.32;6.20;;;21.20;86.80;;;;;;5075266;28;20025;-82
2021/08/20 10:14:37;;;;;;;7.30;5.78;;;21.20;87.50;;;;;;5056985;28;20029;-83
2021/08/20 10:17:04;;;;;;;5.57;4.93;;;21.30;86.60;;;;;;5075412;28;20492;-82
2021/08/20 10:19:30;;;;;;;5.88;5.30;;;21.30;86.60;;;;;;5075188;28;20046;-82
2021/08/20 10:21:57;;;;;;;5.35;4.85;;;21.20;86.60;;;;;;5057324;28;20032;-82
2021/08/20 10:24:22;;;;;;;4.82;4.32;;;21.20;87.10;;;;;;5040703;28;20039;-83
2021/08/20 10:26:54;;;;;;;7.20;4.28;;;21.20;86.40;;;;;;5057324;28;20033;-82
2021/08/20 10:29:25;;;;;;;5.47;4.97;;;21.00;85.60;;;;;;5057034;28;20033;-83
2021/08/20 10:31:52;;;;;;;5.03;4.20;;;21.00;86.60;;;;;;5076318;28;20039;-82
2021/08/20 10:34:30;;;;;;;5.57;4.88;;;21.00;86.90;;;;;;5095304;28;20390;-82
2021/08/20 10:37:26;;;;;;;5.50;4.28;;;21.10;85.80;;;;;;5071323;28;20048;-82
2021/08/20 10:39:54;;;;;;;6.65;4.03;;;21.20;85.40;;;;;;5065694;28;20026;-82
2021/08/20 10:42:22;;;;;;;4.97;4.55;;;21.30;85.30;;;;;;5074905;28;20357;-85
2021/08/20 10:44:51;;;;;;;6.22;5.50;;;21.40;84.80;;;;;;5074492;28;20544;-82
2021/08/20 10:47:27;;;;;;;6.40;5.10;;;21.50;85.10;;;;;;5074633;28;20034;-87
2021/08/20 10:50:13;;;;;;;6.28;5.28;;;21.60;84.30;;;;;;5074583;28;20491;-85
2021/08/20 10:52:44;;;;;;;4.43;4.03;;;21.70;83.20;;;;;;5073939;28;20036;-84
2021/08/20 10:55:23;;;;;;;3.97;3.45;;;21.80;82.70;;;;;;5074565;28;20031;-84
2021/08/20 10:57:55;;;;;;;5.28;3.67;;;21.70;81.90;;;;;;5056730;28;20021;-83
2021/08/20 11:00:20;;;;;;;4.40;3.65;;;21.70;82.50;;;;;;5039859;28;20036;-82
2021/08/20 11:02:51;;;;;;;4.25;3.83;;;21.60;82.60;;;;;;5056365;28;20029;-82
2021/08/20 11:05:19;;;;;;;4.35;3.80;;;21.60;81.70;;;;;;5056029;28;20024;-83
2021/08/20 11:07:46;;;;;;;4.50;3.70;;;21.50;82.40;;;;;;5056443;28;20075;-82
2021/08/20 11:10:11;;;;;;;4.25;3.35;;;21.40;82.90;;;;;;5074519;28;20039;-81
2021/08/20 11:13:04;;;;;;;5.85;3.63;;;21.40;84.00;;;;;;5074578;28;20017;-80
2021/08/20 11:15:30;;;;;;;4.13;3.05;;;21.40;83.70;;;;;;5071618;28;20037;-81
2021/08/20 11:17:57;;;;;;;4.38;3.30;;;21.50;83.50;;;;;;5074529;28;20654;-80
2021/08/20 11:20:25;;;;;;;3.90;2.92;;;21.60;83.20;;;;;;5075834;28;20218;-80
2021/08/20 11:23:15;;;;;;;5.20;3.25;;;21.80;83.30;;;;;;5076476;28;20036;-80
2021/08/20 11:25:53;;;;;;;4.60;2.97;;;22.00;82.80;;;;;;5076069;28;20388;-80
2021/08/20 11:28:29;;;;;;;9.63;3.50;;;22.10;81.30;;;;;;5076086;28;20032;-80
2021/08/20 11:30:58;;;;;;;7.05;2.80;;;22.20;80.20;;;;;;5076130;28;20130;-80
2021/08/20 11:33:31;;;;;;;3.58;2.75;;;22.30;80.10;;;;;;5094036;28;20044;-81
2021/08/20 11:35:59;;;;;;;2.80;2.50;;;22.40;80.00;;;;;;5076054;28;20027;-80
2021/08/20 11:38:28;;;;;;;3.38;2.30;;;22.50;79.80;;;;;;5064524;28;20449;-80
2021/08/20 11:40:58;;;;;;;3.65;2.67;;;22.70;79.60;;;;;;5055865;28;20039;-80
2021/08/20 11:43:24;;;;;;;2.95;2.28;;;22.90;78.50;;;;;;5074027;28;20465;-80
2021/08/20 11:45:59;;;;;;;6.13;2.53;;;22.90;78.00;;;;;;5073482;28;20086;-80
2021/08/20 11:48:26;;;;;;;3.50;2.45;;;23.00;77.70;;;;;;5055600;28;20024;-80
2021/08/20 11:50:51;;;;;;;4.20;2.78;;;23.20;77.60;;;;;;5073164;28;20035;-80
2021/08/20 11:53:22;;;;;;;3.53;2.03;;;23.30;76.90;;;;;;5055837;28;20016;-80
2021/08/20 11:55:48;;;;;;;3.95;2.20;;;23.30;76.00;;;;;;5039148;28;20499;-80
2021/08/20 11:58:27;;;;;;;3.30;2.25;;;23.40;76.00;;;;;;5073285;28;20017;-80
2021/08/20 12:00:54;;;;;;;2.40;1.92;;;23.40;75.90;;;;;;5073256;28;20089;-83
2021/08/20 12:03:20;;;;;;;4.28;2.25;;;23.30;75.60;;;;;;5073321;28;20044;-83
2021/08/20 12:05:45;;;;;;;2.15;1.92;;;23.30;75.30;;;;;;5022001;28;20094;-83
2021/08/20 12:08:18;;;;;;;3.47;2.13;;;23.30;76.00;;;;;;5038703;28;20447;-83
2021/08/20 12:10:49;;;;;;;3.38;2.25;;;23.20;75.80;;;;;;5055284;28;20512;-83
2021/08/20 12:13:15;;;;;;;4.18;2.08;;;23.20;76.20;;;;;;5073045;28;20028;-84
2021/08/20 12:15:41;;;;;;;3.72;2.38;;;23.10;75.70;;;;;;5073351;28;20131;-83
2021/08/20 12:18:23;;;;;;;2.15;1.65;;;23.10;75.70;;;;;;5055210;28;20025;-83
2021/08/20 12:20:50;;;;;;;2.60;1.88;;;23.10;75.90;;;;;;5073175;28;20016;-83
2021/08/20 12:23:16;;;;;;;2.90;1.70;;;23.10;75.70;;;;;;5073192;28;20031;-83
2021/08/20 12:25:42;;;;;;;2.58;1.63;;;23.10;74.90;;;;;;5054922;28;20035;-83
2021/08/20 12:28:13;;;;;;;3.40;1.60;;;23.20;75.60;;;;;;5072990;28;20017;-83
2021/08/20 12:30:39;;;;;;;4.68;2.03;;;23.20;74.80;;;;;;5054851;28;20033;-83
2021/08/20 12:33:05;;;;;;;2.53;1.58;;;23.20;74.40;;;;;;5034997;28;20139;-83
2021/08/20 12:35:31;;;;;;;1.95;1.67;;;23.30;74.40;;;;;;5051823;28;20018;-83
2021/08/20 12:38:11;;;;;;;2.95;1.90;;;23.40;74.90;;;;;;5051324;28;20025;-83
2021/08/20 12:40:36;;;;;;;4.95;1.80;;;23.50;74.40;;;;;;5051792;28;20057;-83